createdAt,value
2022-10-23T00:01:58.192Z,24.18
2022-10-23T00:04:24.516Z,24.19
2022-10-23T00:06:50.857Z,24.17
2022-10-23T00:09:17.196Z,24.15
2022-10-23T00:11:43.526Z,24.18
2022-10-23T00:14:09.856Z,24.16
2022-10-23T00:16:36.200Z,24.13
2022-10-23T00:19:02.538Z,24.13
2022-10-23T00:21:28.874Z,24.13
2022-10-23T00:23:55.296Z,24.11
2022-10-23T00:26:21.714Z,24.13
2022-10-23T00:28:48.069Z,24.12
2022-10-23T00:31:14.411Z,24.13
2022-10-23T00:33:40.757Z,24.13
2022-10-23T00:36:07.094Z,24.13
2022-10-23T00:38:33.424Z,24.10
2022-10-23T00:40:59.765Z,24.10
2022-10-23T00:43:26.092Z,24.09
2022-10-23T00:45:52.423Z,24.10
2022-10-23T00:48:18.754Z,24.12
2022-10-23T00:50:45.082Z,24.12
2022-10-23T00:53:11.399Z,24.13
2022-10-23T00:55:37.728Z,24.11
2022-10-23T00:58:04.057Z,24.10
2022-10-23T01:00:30.388Z,24.11
2022-10-23T01:02:56.721Z,24.09
2022-10-23T01:05:23.072Z,24.07
2022-10-23T01:07:49.405Z,24.07
2022-10-23T01:10:15.737Z,24.06
2022-10-23T01:12:42.073Z,24.08
2022-10-23T01:15:08.387Z,24.06
2022-10-23T01:17:34.692Z,24.05
2022-10-23T01:20:01.044Z,24.03
2022-10-23T01:22:27.399Z,24.04
2022-10-23T01:24:53.739Z,24.04
2022-10-23T01:27:20.060Z,24.03
2022-10-23T01:29:46.385Z,24.01
2022-10-23T01:32:12.717Z,24.02
2022-10-23T01:34:39.036Z,24.00
2022-10-23T01:37:05.378Z,24.03
2022-10-23T01:39:31.700Z,24.01
2022-10-23T01:41:58.007Z,24.00
2022-10-23T01:44:24.330Z,24.02
2022-10-23T01:46:50.646Z,24.01
2022-10-23T01:49:16.965Z,24.04
2022-10-23T01:51:43.285Z,24.03
2022-10-23T01:54:09.609Z,24.03
2022-10-23T01:56:35.931Z,24.01
2022-10-23T01:59:02.259Z,24.01
2022-10-23T02:01:28.665Z,24.00
2022-10-23T02:03:55.108Z,23.96
2022-10-23T02:06:21.440Z,24.00
2022-10-23T02:08:47.770Z,24.00
2022-10-23T02:11:14.095Z,23.97
2022-10-23T02:13:40.428Z,23.94
2022-10-23T02:16:06.762Z,23.95
2022-10-23T02:18:33.084Z,23.99
2022-10-23T02:20:59.410Z,23.92
2022-10-23T02:23:25.735Z,23.93
2022-10-23T02:25:52.061Z,23.92
2022-10-23T02:28:18.394Z,23.92
2022-10-23T02:30:44.707Z,23.91
2022-10-23T02:33:11.041Z,23.92
2022-10-23T02:35:37.369Z,23.90
2022-10-23T02:38:03.683Z,23.87
2022-10-23T02:40:30.027Z,23.94
2022-10-23T02:42:56.356Z,23.95
2022-10-23T02:45:22.677Z,23.94
2022-10-23T02:47:49.000Z,23.92
2022-10-23T02:50:15.329Z,23.90
2022-10-23T02:52:41.666Z,23.89
2022-10-23T02:55:07.994Z,23.89
2022-10-23T02:57:34.329Z,23.89
2022-10-23T03:00:00.639Z,23.88
2022-10-23T03:02:27.006Z,23.88
2022-10-23T03:04:53.380Z,23.86
2022-10-23T03:07:19.700Z,23.87
2022-10-23T03:09:46.011Z,23.85
2022-10-23T03:12:12.330Z,23.89
2022-10-23T03:14:38.652Z,23.87
2022-10-23T03:17:05.221Z,23.87
2022-10-23T03:19:31.557Z,23.84
2022-10-23T03:21:57.870Z,23.83
2022-10-23T03:24:24.202Z,23.83
2022-10-23T03:26:50.539Z,23.83
2022-10-23T03:29:16.863Z,23.84
2022-10-23T03:31:43.174Z,23.82
2022-10-23T03:34:09.521Z,23.84
2022-10-23T03:36:35.847Z,23.82
2022-10-23T03:39:02.172Z,23.82
2022-10-23T03:41:28.505Z,23.84
2022-10-23T03:43:54.887Z,23.80
2022-10-23T03:46:21.237Z,23.78
2022-10-23T03:48:47.562Z,23.82
2022-10-23T03:51:13.881Z,23.81
2022-10-23T03:53:40.282Z,23.80
2022-10-23T03:56:06.604Z,23.80
2022-10-23T03:58:32.938Z,23.80
2022-10-23T04:00:59.334Z,23.80
2022-10-23T04:03:25.716Z,23.76
2022-10-23T04:05:52.447Z,23.76
2022-10-23T04:08:20.185Z,23.76
2022-10-23T04:10:46.731Z,23.77
2022-10-23T04:13:13.069Z,23.77
2022-10-23T04:15:39.388Z,23.76
2022-10-23T04:18:05.727Z,23.76
2022-10-23T04:20:32.052Z,23.74
2022-10-23T04:22:58.376Z,23.75
2022-10-23T04:25:24.696Z,23.76
2022-10-23T04:27:51.101Z,23.77
2022-10-23T04:30:17.419Z,23.75
2022-10-23T04:32:43.746Z,23.74
2022-10-23T04:35:10.067Z,23.72
2022-10-23T04:37:36.414Z,23.74
2022-10-23T04:40:02.743Z,23.71
2022-10-23T04:42:29.067Z,23.69
2022-10-23T04:44:55.391Z,23.72
2022-10-23T04:47:21.718Z,23.71
2022-10-23T04:49:48.044Z,23.71
2022-10-23T04:52:14.373Z,23.69
2022-10-23T04:54:40.696Z,23.70
2022-10-23T04:57:07.015Z,23.69
2022-10-23T04:59:33.332Z,23.69
2022-10-23T05:01:59.702Z,23.69
2022-10-23T05:04:26.053Z,23.69
2022-10-23T05:06:52.417Z,23.68
2022-10-23T05:09:18.748Z,23.67
2022-10-23T05:11:45.069Z,23.64
2022-10-23T05:14:11.400Z,23.63
2022-10-23T05:16:37.743Z,23.64
2022-10-23T05:19:04.060Z,23.61
2022-10-23T05:21:30.372Z,23.66
2022-10-23T05:23:56.736Z,23.62
2022-10-23T05:26:23.136Z,23.66
2022-10-23T05:28:49.456Z,23.64
2022-10-23T05:31:15.776Z,23.64
2022-10-23T05:33:42.115Z,23.62
2022-10-23T05:36:08.432Z,23.63
2022-10-23T05:38:34.762Z,23.69
2022-10-23T05:41:01.100Z,23.68
2022-10-23T05:43:27.428Z,23.65
2022-10-23T05:45:53.766Z,23.68
2022-10-23T05:48:30.144Z,23.65
2022-10-23T05:51:00.169Z,23.64
2022-10-23T05:53:26.502Z,23.66
2022-10-23T05:55:52.831Z,23.63
2022-10-23T05:58:19.160Z,23.63
2022-10-23T06:00:45.502Z,23.60
2022-10-23T06:03:11.837Z,23.57
2022-10-23T06:08:09.396Z,23.58
2022-10-23T06:10:35.729Z,23.58
2022-10-23T06:13:02.066Z,23.58
2022-10-23T06:15:28.384Z,23.56
2022-10-23T06:17:54.701Z,23.57
2022-10-23T06:20:23.121Z,23.61
2022-10-23T06:22:52.842Z,23.66
2022-10-23T06:25:19.161Z,23.64
2022-10-23T06:27:45.493Z,23.64
2022-10-23T06:30:11.798Z,23.66
2022-10-23T06:32:38.125Z,23.63
2022-10-23T06:35:04.453Z,23.64
2022-10-23T06:37:30.764Z,23.62
2022-10-23T06:39:57.105Z,23.60
2022-10-23T06:42:23.430Z,23.70
2022-10-23T06:44:49.753Z,23.71
2022-10-23T06:49:47.289Z,23.74
2022-10-23T06:52:18.519Z,23.71
2022-10-23T06:54:55.016Z,23.70
2022-10-23T06:57:21.376Z,23.63
2022-10-23T06:59:47.701Z,23.60
2022-10-23T07:02:14.066Z,23.57
2022-10-23T07:04:40.397Z,23.56
2022-10-23T07:07:06.733Z,23.49
2022-10-23T07:09:33.070Z,23.56
2022-10-23T07:11:59.400Z,23.55
2022-10-23T07:14:25.728Z,23.59
2022-10-23T07:16:52.052Z,23.59
2022-10-23T07:19:18.389Z,23.58
2022-10-23T07:21:44.752Z,23.59
2022-10-23T07:24:11.077Z,23.59
2022-10-23T07:26:37.476Z,23.61
2022-10-23T07:29:03.866Z,23.62
2022-10-23T07:31:30.184Z,23.61
2022-10-23T07:33:56.531Z,23.62
2022-10-23T07:36:22.887Z,23.62
2022-10-23T07:38:49.239Z,23.58
2022-10-23T07:41:15.585Z,23.50
2022-10-23T07:43:41.921Z,23.67
2022-10-23T07:46:08.262Z,23.75
2022-10-23T07:48:34.594Z,23.75
2022-10-23T07:51:00.991Z,23.74
2022-10-23T07:53:27.353Z,23.68
2022-10-23T07:55:53.680Z,23.74
2022-10-23T07:58:22.564Z,23.77
2022-10-23T08:00:48.892Z,23.82
2022-10-23T08:03:15.222Z,23.70
2022-10-23T08:05:41.573Z,23.62
2022-10-23T08:08:07.915Z,23.57
2022-10-23T08:10:34.250Z,23.55
2022-10-23T08:13:00.574Z,23.54
2022-10-23T08:15:26.909Z,23.58
2022-10-23T08:17:53.226Z,23.57
2022-10-23T08:20:19.564Z,23.59
2022-10-23T08:22:45.888Z,23.59
2022-10-23T08:25:12.285Z,23.60
2022-10-23T08:27:38.696Z,23.61
2022-10-23T08:30:05.043Z,23.62
2022-10-23T08:32:31.375Z,23.62
2022-10-23T08:34:57.705Z,23.62
2022-10-23T08:37:24.027Z,23.68
2022-10-23T08:39:52.654Z,23.66
2022-10-23T08:42:19.728Z,23.66
2022-10-23T08:44:46.056Z,23.66
2022-10-23T08:47:12.386Z,23.64
2022-10-23T08:49:38.721Z,23.67
2022-10-23T08:52:05.046Z,23.67
2022-10-23T08:54:31.379Z,23.64
2022-10-23T08:56:57.710Z,23.62
2022-10-23T08:59:24.055Z,23.60
2022-10-23T09:01:50.474Z,23.60
2022-10-23T09:04:16.870Z,23.58
2022-10-23T09:06:43.204Z,23.56
2022-10-23T09:09:09.542Z,23.57
2022-10-23T09:11:35.869Z,23.55
2022-10-23T09:14:02.195Z,23.55
2022-10-23T09:16:28.534Z,23.58
2022-10-23T09:18:54.870Z,23.57
2022-10-23T09:21:21.232Z,23.61
2022-10-23T09:23:47.564Z,23.61
2022-10-23T09:26:13.896Z,23.59
2022-10-23T09:28:40.221Z,23.60
2022-10-23T09:31:06.567Z,23.60
2022-10-23T09:33:32.905Z,23.60
2022-10-23T09:35:59.235Z,23.62
2022-10-23T09:38:25.564Z,23.62
2022-10-23T09:40:51.933Z,23.62
2022-10-23T09:43:18.254Z,23.63
2022-10-23T09:45:44.580Z,23.66
2022-10-23T09:48:10.897Z,23.69
2022-10-23T09:50:37.224Z,23.70
2022-10-23T09:53:03.564Z,23.70
2022-10-23T09:55:29.905Z,23.67
2022-10-23T09:57:56.234Z,23.74
2022-10-23T10:00:22.564Z,23.78
2022-10-23T10:02:48.906Z,23.78
2022-10-23T10:05:15.229Z,23.72
2022-10-23T10:07:41.609Z,23.71
2022-10-23T10:10:07.994Z,23.71
2022-10-23T10:12:34.332Z,23.73
2022-10-23T10:15:00.660Z,23.73
2022-10-23T10:17:26.988Z,23.74
2022-10-23T10:19:53.298Z,23.72
2022-10-23T10:22:19.634Z,23.73
2022-10-23T10:24:45.960Z,23.72
2022-10-23T10:27:12.290Z,23.71
2022-10-23T10:29:38.615Z,23.69
2022-10-23T10:32:04.959Z,23.73
2022-10-23T10:34:31.285Z,23.74
2022-10-23T10:36:57.609Z,23.74
2022-10-23T10:39:23.940Z,23.74
2022-10-23T10:41:50.264Z,23.74
2022-10-23T10:44:16.599Z,23.77
2022-10-23T10:46:42.927Z,23.75
2022-10-23T10:49:09.257Z,23.75
2022-10-23T10:51:35.585Z,23.75
2022-10-23T10:54:01.938Z,23.74
2022-10-23T10:56:28.273Z,23.75
2022-10-23T10:58:54.600Z,23.72
2022-10-23T11:01:21.005Z,23.71
2022-10-23T11:03:47.478Z,23.75
2022-10-23T11:06:13.810Z,23.75
2022-10-23T11:08:50.130Z,23.78
2022-10-23T11:11:24.623Z,23.76
2022-10-23T11:13:50.953Z,23.74
2022-10-23T11:16:17.297Z,23.77
2022-10-23T11:18:43.620Z,23.77
2022-10-23T11:21:09.957Z,23.74
2022-10-23T11:23:36.303Z,23.74
2022-10-23T11:26:02.633Z,23.76
2022-10-23T11:28:28.953Z,23.73
2022-10-23T11:30:55.277Z,23.73
2022-10-23T11:33:21.599Z,23.73
2022-10-23T11:35:47.938Z,23.75
2022-10-23T11:38:14.276Z,23.74
2022-10-23T11:40:40.682Z,23.74
2022-10-23T11:43:07.065Z,23.72
2022-10-23T11:45:33.397Z,23.75
2022-10-23T11:47:59.722Z,23.75
2022-10-23T11:50:26.062Z,23.74
2022-10-23T11:53:12.564Z,23.74
2022-10-23T11:55:38.692Z,23.77
2022-10-23T11:58:05.025Z,23.78
2022-10-23T12:00:31.344Z,23.81
2022-10-23T12:02:59.041Z,23.79
2022-10-23T12:05:25.692Z,23.77
2022-10-23T12:07:52.036Z,23.77
2022-10-23T12:10:18.377Z,23.79
2022-10-23T12:12:44.714Z,23.81
2022-10-23T12:15:11.044Z,23.80
2022-10-23T12:17:37.415Z,23.78
2022-10-23T12:20:03.755Z,23.77
2022-10-23T12:22:30.133Z,23.76
2022-10-23T12:24:56.505Z,23.73
2022-10-23T12:27:22.832Z,23.81
2022-10-23T12:29:49.169Z,23.96
2022-10-23T12:32:15.495Z,23.92
2022-10-23T12:34:41.816Z,23.83
2022-10-23T12:37:08.142Z,23.78
2022-10-23T12:39:34.471Z,23.73
2022-10-23T12:42:00.806Z,23.75
2022-10-23T12:44:27.135Z,23.70
2022-10-23T12:46:53.455Z,23.68
2022-10-23T12:49:19.798Z,23.72
2022-10-23T12:51:46.145Z,23.82
2022-10-23T12:54:12.473Z,23.80
2022-10-23T12:56:38.819Z,23.75
2022-10-23T12:59:05.168Z,23.74
2022-10-23T13:01:31.546Z,23.76
2022-10-23T13:03:57.969Z,23.83
2022-10-23T13:06:24.329Z,23.91
2022-10-23T13:08:50.656Z,23.91
2022-10-23T13:11:16.979Z,23.92
2022-10-23T13:13:43.300Z,23.91
2022-10-23T13:16:09.635Z,23.86
2022-10-23T13:18:35.970Z,23.80
2022-10-23T13:23:33.532Z,23.74
2022-10-23T13:25:59.860Z,23.76
2022-10-23T13:28:26.194Z,23.77
2022-10-23T13:30:52.527Z,23.85
2022-10-23T13:33:18.860Z,23.87
2022-10-23T13:35:45.201Z,23.95
2022-10-23T13:38:11.556Z,24.09
2022-10-23T13:40:37.875Z,24.08
2022-10-23T13:43:04.205Z,24.09
2022-10-23T13:45:30.522Z,24.07
2022-10-23T13:47:56.844Z,24.11
2022-10-23T13:50:23.167Z,24.19
2022-10-23T13:52:49.493Z,24.29
2022-10-23T13:55:15.846Z,24.24
2022-10-23T13:57:42.418Z,24.24
2022-10-23T14:00:08.974Z,24.38
2022-10-23T14:02:35.377Z,24.38
2022-10-23T14:05:01.732Z,24.43
2022-10-23T14:07:28.056Z,24.34
2022-10-23T14:09:54.634Z,24.40
2022-10-23T14:12:21.026Z,24.45
2022-10-23T14:14:47.357Z,24.44
2022-10-23T14:17:13.684Z,24.52
2022-10-23T14:19:40.050Z,24.51
2022-10-23T14:22:06.417Z,24.45
2022-10-23T14:24:32.755Z,24.43
2022-10-23T14:26:59.093Z,24.42
2022-10-23T14:29:25.464Z,24.46
2022-10-23T14:31:51.801Z,24.45
2022-10-23T14:34:18.141Z,24.48
2022-10-23T14:36:50.204Z,24.43
2022-10-23T14:39:22.946Z,24.48
2022-10-23T14:41:49.296Z,24.45
2022-10-23T14:44:15.626Z,24.34
2022-10-23T14:46:41.964Z,24.40
2022-10-23T14:49:08.333Z,24.45
2022-10-23T14:51:34.654Z,24.43
2022-10-23T14:54:00.985Z,24.50
2022-10-23T14:56:27.319Z,24.40
2022-10-23T14:58:53.653Z,24.46
2022-10-23T15:01:20.206Z,24.48
2022-10-23T15:03:46.688Z,24.53
2022-10-23T15:06:17.517Z,24.62
2022-10-23T15:08:44.738Z,24.66
2022-10-23T15:11:12.608Z,24.69
2022-10-23T15:13:39.246Z,24.68
2022-10-23T15:16:05.572Z,24.66
2022-10-23T15:18:31.995Z,24.71
2022-10-23T15:20:58.355Z,24.73
2022-10-23T15:23:24.694Z,24.73
2022-10-23T15:25:51.029Z,24.75
2022-10-23T15:28:17.362Z,24.77
2022-10-23T15:30:43.694Z,24.76
2022-10-23T15:33:10.025Z,24.78
2022-10-23T15:35:36.388Z,24.75
2022-10-23T15:38:02.713Z,24.68
2022-10-23T15:40:29.048Z,24.66
2022-10-23T15:42:55.382Z,24.75
2022-10-23T15:45:21.712Z,24.78
2022-10-23T15:47:48.043Z,24.80
2022-10-23T15:50:14.400Z,24.78
2022-10-23T15:52:40.846Z,24.79
2022-10-23T15:55:07.259Z,24.78
2022-10-23T15:57:33.589Z,24.81
2022-10-23T15:59:59.919Z,24.81
2022-10-23T16:02:26.367Z,24.76
2022-10-23T16:04:52.798Z,24.80
2022-10-23T16:07:19.132Z,24.82
2022-10-23T16:09:45.460Z,24.87
2022-10-23T16:12:11.784Z,24.86
2022-10-23T16:14:38.105Z,24.92
2022-10-23T16:17:04.493Z,24.97
2022-10-23T16:19:30.840Z,24.97
2022-10-23T16:21:57.165Z,24.96
2022-10-23T16:24:23.480Z,24.96
2022-10-23T16:26:49.800Z,24.98
2022-10-23T16:29:16.112Z,24.92
2022-10-23T16:31:42.454Z,24.96
2022-10-23T16:34:08.791Z,24.98
2022-10-23T16:36:35.139Z,24.98
2022-10-23T16:39:01.481Z,24.96
2022-10-23T16:41:27.805Z,24.95
2022-10-23T16:43:54.137Z,24.93
2022-10-23T16:46:20.494Z,24.88
2022-10-23T16:48:46.831Z,24.95
2022-10-23T16:51:13.157Z,24.96
2022-10-23T16:53:39.494Z,24.96
2022-10-23T16:56:05.840Z,24.98
2022-10-23T16:58:32.172Z,24.98
2022-10-23T17:00:58.606Z,24.98
2022-10-23T17:03:24.984Z,24.99
2022-10-23T17:05:51.313Z,25.00
2022-10-23T17:08:17.650Z,24.99
2022-10-23T17:10:43.989Z,24.99
2022-10-23T17:13:10.319Z,24.97
2022-10-23T17:15:36.690Z,25.00
2022-10-23T17:18:03.061Z,24.98
2022-10-23T17:20:29.393Z,25.01
2022-10-23T17:22:55.761Z,25.00
2022-10-23T17:25:22.105Z,25.01
2022-10-23T17:27:48.456Z,25.02
2022-10-23T17:30:14.784Z,25.00
2022-10-23T17:32:41.458Z,25.00
2022-10-23T17:35:08.133Z,25.02
2022-10-23T17:37:34.471Z,25.01
2022-10-23T17:40:01.348Z,25.01
2022-10-23T17:42:27.982Z,25.00
2022-10-23T17:44:54.323Z,25.00
2022-10-23T17:47:20.661Z,24.99
2022-10-23T17:49:46.987Z,24.99
2022-10-23T17:52:13.450Z,24.99
2022-10-23T17:54:39.783Z,24.99
2022-10-23T17:57:06.146Z,24.98
2022-10-23T17:59:32.484Z,24.99
2022-10-23T18:01:58.961Z,24.99
2022-10-23T18:04:25.411Z,24.98
2022-10-23T18:06:51.748Z,24.99
2022-10-23T18:09:18.076Z,24.98
2022-10-23T18:11:45.535Z,24.97
2022-10-23T18:14:14.156Z,24.98
2022-10-23T18:16:40.475Z,24.98
2022-10-23T18:19:06.822Z,24.99
2022-10-23T18:21:33.153Z,24.99
2022-10-23T18:23:59.498Z,24.99
2022-10-23T18:26:25.820Z,24.98
2022-10-23T18:28:52.146Z,24.99
2022-10-23T18:31:18.477Z,24.98
2022-10-23T18:33:44.805Z,24.98
2022-10-23T18:36:11.141Z,24.96
2022-10-23T18:38:37.513Z,24.97
2022-10-23T18:41:03.852Z,24.97
2022-10-23T18:43:43.276Z,24.98
2022-10-23T18:46:10.609Z,24.96
2022-10-23T18:48:36.947Z,24.95
2022-10-23T18:51:03.274Z,24.97
2022-10-23T18:53:29.596Z,24.97
2022-10-23T18:55:55.933Z,24.97
2022-10-23T18:58:22.284Z,24.97
2022-10-23T19:00:48.614Z,24.96
2022-10-23T19:03:14.958Z,24.95
2022-10-23T19:05:41.285Z,24.92
2022-10-23T19:08:07.616Z,24.99
2022-10-23T19:10:33.947Z,24.98
2022-10-23T19:13:00.265Z,25.01
2022-10-23T19:15:26.597Z,25.07
2022-10-23T19:17:52.929Z,25.09
2022-10-23T19:20:19.286Z,25.11
2022-10-23T19:22:45.902Z,25.10
2022-10-23T19:25:12.358Z,25.08
2022-10-23T19:27:38.713Z,25.09
2022-10-23T19:30:05.049Z,25.12
2022-10-23T19:32:31.394Z,25.10
2022-10-23T19:34:57.726Z,25.09
2022-10-23T19:37:24.050Z,25.08
2022-10-23T19:39:50.385Z,25.07
2022-10-23T19:42:16.721Z,25.04
2022-10-23T19:44:43.054Z,25.06
2022-10-23T19:47:09.383Z,25.06
2022-10-23T19:49:35.697Z,25.05
2022-10-23T19:52:02.034Z,25.07
2022-10-23T19:54:28.366Z,25.05
2022-10-23T19:56:54.701Z,25.04
2022-10-23T19:59:21.034Z,25.04
2022-10-23T20:01:49.011Z,25.03
2022-10-23T20:04:15.597Z,25.02
2022-10-23T20:06:41.951Z,25.02
2022-10-23T20:09:08.278Z,25.02
2022-10-23T20:11:34.603Z,25.01
2022-10-23T20:14:00.948Z,25.02
2022-10-23T20:16:27.284Z,25.01
2022-10-23T20:18:53.612Z,25.01
2022-10-23T20:21:19.960Z,24.96
2022-10-23T20:23:46.306Z,24.96
2022-10-23T20:26:12.655Z,24.99
2022-10-23T20:28:38.976Z,25.01
2022-10-23T20:31:05.385Z,25.03
2022-10-23T20:33:31.716Z,25.01
2022-10-23T20:35:58.046Z,25.01
2022-10-23T20:38:24.364Z,25.01
2022-10-23T20:40:50.701Z,25.01
2022-10-23T20:43:17.029Z,24.98
2022-10-23T20:45:43.361Z,25.00
2022-10-23T20:48:09.679Z,24.97
2022-10-23T20:50:36.009Z,24.98
2022-10-23T20:53:02.343Z,24.99
2022-10-23T20:55:28.672Z,24.99
2022-10-23T20:57:55.032Z,24.98
2022-10-23T21:00:21.363Z,24.99
2022-10-23T21:02:49.964Z,24.96
2022-10-23T21:05:18.651Z,24.96
2022-10-23T21:07:44.983Z,24.96
2022-10-23T21:10:11.314Z,24.96
2022-10-23T21:12:37.646Z,24.92
2022-10-23T21:15:03.994Z,24.95
2022-10-23T21:20:01.554Z,24.96
2022-10-23T21:22:27.879Z,24.95
2022-10-23T21:24:54.218Z,24.96
2022-10-23T21:27:20.559Z,24.96
2022-10-23T21:29:46.890Z,24.95
2022-10-23T21:32:13.225Z,24.93
2022-10-23T21:34:39.585Z,24.94
2022-10-23T21:37:14.480Z,24.93
2022-10-23T21:39:41.285Z,24.93
2022-10-23T21:42:07.627Z,24.92
2022-10-23T21:44:33.963Z,24.91
2022-10-23T21:47:00.287Z,24.90
2022-10-23T21:49:26.615Z,24.90
2022-10-23T21:51:52.952Z,24.90
2022-10-23T21:54:19.280Z,24.88
2022-10-23T21:56:45.611Z,24.89
2022-10-23T21:59:11.933Z,24.89
2022-10-23T22:01:38.342Z,24.89
2022-10-23T22:04:04.754Z,24.89
2022-10-23T22:06:31.067Z,24.87
2022-10-23T22:08:57.416Z,24.87
2022-10-23T22:11:23.736Z,24.86
2022-10-23T22:13:50.088Z,24.88
2022-10-23T22:16:16.497Z,24.86
2022-10-23T22:18:42.816Z,24.87
2022-10-23T22:21:09.146Z,24.85
2022-10-23T22:23:35.508Z,24.87
2022-10-23T22:26:01.841Z,24.85
2022-10-23T22:28:28.160Z,24.86
2022-10-23T22:30:54.495Z,24.85
2022-10-23T22:33:20.832Z,24.85
2022-10-23T22:35:47.232Z,24.85
2022-10-23T22:38:13.700Z,24.84
2022-10-23T22:40:44.330Z,24.84
2022-10-23T22:43:12.757Z,24.85
2022-10-23T22:45:39.093Z,24.84
2022-10-23T22:48:05.411Z,24.83
2022-10-23T22:50:31.753Z,24.82
2022-10-23T22:52:58.084Z,24.82
2022-10-23T22:55:24.415Z,24.82
2022-10-23T22:57:50.743Z,24.82
2022-10-23T23:00:17.082Z,24.82
2022-10-23T23:02:43.412Z,24.82
2022-10-23T23:05:09.744Z,24.82
2022-10-23T23:07:36.071Z,24.82
2022-10-23T23:10:02.403Z,24.81
2022-10-23T23:12:28.737Z,24.81
2022-10-23T23:14:55.068Z,24.82
2022-10-23T23:17:21.396Z,24.82
2022-10-23T23:19:47.720Z,24.80
2022-10-23T23:22:14.133Z,24.79
2022-10-23T23:24:40.477Z,24.78
2022-10-23T23:27:06.808Z,24.80
2022-10-23T23:29:33.139Z,24.80
2022-10-23T23:31:59.474Z,24.78
2022-10-23T23:34:25.829Z,24.78
2022-10-23T23:36:52.164Z,24.78
2022-10-23T23:39:18.501Z,24.79
2022-10-23T23:41:44.830Z,24.78
2022-10-23T23:44:11.167Z,24.79
2022-10-23T23:46:37.498Z,24.77
2022-10-23T23:49:03.821Z,24.77
2022-10-23T23:51:30.152Z,24.77
2022-10-23T23:53:56.486Z,24.76
2022-10-23T23:56:22.812Z,24.76
2022-10-23T23:58:49.147Z,24.75
